Time;durP1;ratioP1;P1;durP2;ratioP2;P2;SDS_P1;SDS_P2;PMS_P1;PMS_P2;Temp;Humidity;BMP_temperature;BMP_pressure;BME280_temperature;BME280_humidity;BME280_pressure;Samples;Min_cycle;Max_cycle;Signal;HPM_P1;HPM_P2
2023/06/14 00:00:07;;;;;;;4.43;3.60;;;11.80;91.40;;;;;;5136738;27;20270;-80
2023/06/14 00:02:35;;;;;;;6.20;3.80;;;11.70;91.80;;;;;;5135664;27;20563;-80
2023/06/14 00:05:04;;;;;;;6.57;3.57;;;11.70;91.80;;;;;;5135777;27;20352;-78
2023/06/14 00:07:38;;;;;;;5.47;3.93;;;11.70;91.10;;;;;;5135563;27;20214;-79
2023/06/14 00:10:07;;;;;;;6.77;3.80;;;11.80;90.90;;;;;;5134423;27;20320;-79
2023/06/14 00:12:36;;;;;;;4.53;3.63;;;11.80;91.00;;;;;;5134149;27;20212;-79
2023/06/14 00:15:05;;;;;;;6.70;4.30;;;11.70;91.50;;;;;;5134161;27;20231;-79
2023/06/14 00:17:33;;;;;;;4.53;3.80;;;11.70;91.90;;;;;;5143834;27;20197;-79
2023/06/14 00:20:04;;;;;;;4.53;3.50;;;11.70;91.80;;;;;;5154725;27;20270;-79
2023/06/14 00:22:33;;;;;;;5.33;3.80;;;11.60;92.70;;;;;;5136391;27;20201;-80
2023/06/14 00:25:02;;;;;;;6.83;3.87;;;11.60;92.90;;;;;;5133985;27;20205;-78
2023/06/14 00:27:50;;;;;;;5.67;3.90;;;11.50;93.80;;;;;;5140937;27;20680;-79
2023/06/14 00:30:18;;;;;;;4.90;4.00;;;11.50;94.50;;;;;;5154738;27;20220;-79
2023/06/14 00:32:47;;;;;;;5.47;4.07;;;11.40;94.70;;;;;;5152969;27;20622;-81
2023/06/14 00:35:15;;;;;;;6.73;4.13;;;11.40;95.20;;;;;;5133499;27;20612;-80
2023/06/14 00:37:43;;;;;;;6.43;3.73;;;11.40;95.00;;;;;;5133773;27;20702;-79
2023/06/14 00:40:13;;;;;;;5.30;3.60;;;11.40;95.20;;;;;;5133275;27;20249;-79
2023/06/14 00:42:41;;;;;;;7.10;3.80;;;11.30;95.90;;;;;;5154609;27;20205;-80
2023/06/14 00:45:11;;;;;;;5.53;3.90;;;11.20;96.90;;;;;;5154108;27;20261;-80
2023/06/14 00:47:41;;;;;;;5.87;4.70;;;11.20;97.30;;;;;;5154333;27;20205;-80
2023/06/14 00:50:11;;;;;;;7.70;3.90;;;11.20;97.50;;;;;;5151841;27;20196;-80
2023/06/14 00:52:40;;;;;;;4.73;3.90;;;11.20;97.30;;;;;;5133055;27;20262;-80
2023/06/14 00:55:08;;;;;;;4.90;3.70;;;11.20;97.50;;;;;;5133350;27;20221;-79
2023/06/14 00:57:39;;;;;;;6.60;4.00;;;11.10;98.20;;;;;;5133478;27;20209;-80
2023/06/14 01:00:09;;;;;;;7.03;3.80;;;11.10;98.40;;;;;;5133444;27;20217;-80
2023/06/14 01:02:38;;;;;;;6.13;3.67;;;11.00;99.00;;;;;;5132831;27;20239;-80
2023/06/14 01:05:07;;;;;;;7.20;4.20;;;11.00;99.30;;;;;;5133142;27;20284;-79
2023/06/14 01:07:48;;;;;;;6.30;4.43;;;10.90;99.80;;;;;;5132942;27;20206;-79
2023/06/14 01:10:28;;;;;;;5.60;3.77;;;10.90;99.90;;;;;;5133167;27;20217;-80
2023/06/14 01:13:06;;;;;;;6.43;4.07;;;10.90;99.90;;;;;;5132900;27;20205;-80
2023/06/14 01:15:35;;;;;;;5.77;3.90;;;10.90;99.90;;;;;;5132640;27;20711;-78
2023/06/14 01:18:06;;;;;;;6.47;3.97;;;10.80;99.90;;;;;;5132779;27;20206;-80
2023/06/14 01:20:36;;;;;;;5.13;4.03;;;10.80;99.90;;;;;;5132807;27;20250;-80
2023/06/14 01:23:06;;;;;;;4.73;4.00;;;10.80;99.90;;;;;;5132697;27;20213;-78
2023/06/14 01:25:35;;;;;;;5.73;3.90;;;10.70;99.90;;;;;;5133017;27;20202;-80
2023/06/14 01:28:10;;;;;;;6.57;4.60;;;10.70;99.90;;;;;;5132848;27;20244;-79
2023/06/14 01:30:42;;;;;;;6.23;4.50;;;10.60;99.90;;;;;;5132659;27;20229;-80
2023/06/14 01:33:11;;;;;;;6.90;4.27;;;10.50;99.90;;;;;;5132661;27;20209;-80
2023/06/14 01:35:39;;;;;;;5.50;4.40;;;10.50;99.90;;;;;;5132648;27;20671;-77
2023/06/14 01:38:09;;;;;;;6.53;4.10;;;10.50;99.90;;;;;;5132655;27;20205;-79
2023/06/14 01:40:37;;;;;;;5.20;4.20;;;10.40;99.90;;;;;;5147758;27;20220;-80
2023/06/14 01:43:07;;;;;;;4.77;4.10;;;10.40;99.90;;;;;;5152089;27;20275;-79
2023/06/14 01:45:35;;;;;;;6.63;4.30;;;10.40;99.90;;;;;;5152809;27;20230;-78
2023/06/14 01:48:04;;;;;;;6.20;4.33;;;10.30;99.90;;;;;;5153043;27;20208;-80
2023/06/14 01:50:33;;;;;;;5.77;3.60;;;10.30;99.90;;;;;;5138941;27;20305;-79
2023/06/14 01:53:01;;;;;;;5.53;4.10;;;10.30;99.90;;;;;;5132424;28;20209;-79
2023/06/14 01:55:37;;;;;;;5.10;4.13;;;10.20;99.90;;;;;;5132853;28;20278;-80
2023/06/14 01:58:05;;;;;;;8.07;4.67;;;10.30;99.90;;;;;;5132575;28;20189;-81
2023/06/14 02:00:33;;;;;;;5.40;4.63;;;10.20;99.90;;;;;;5132741;27;20221;-80
2023/06/14 02:03:03;;;;;;;6.70;4.30;;;10.20;99.90;;;;;;5147321;27;20208;-80
2023/06/14 02:05:32;;;;;;;5.60;4.40;;;10.30;99.90;;;;;;5156236;27;20300;-79
2023/06/14 02:08:00;;;;;;;9.57;4.50;;;10.20;99.90;;;;;;5156003;27;20543;-79
2023/06/14 02:10:28;;;;;;;5.57;4.30;;;10.20;99.90;;;;;;5157413;27;20208;-80
2023/06/14 02:12:57;;;;;;;5.50;4.50;;;10.20;99.90;;;;;;5157224;27;20228;-79
2023/06/14 02:15:33;;;;;;;5.93;4.83;;;10.10;99.90;;;;;;5157467;27;20332;-79
2023/06/14 02:18:03;;;;;;;4.33;3.73;;;10.10;99.90;;;;;;5137049;27;20229;-78
2023/06/14 02:20:31;;;;;;;5.47;4.17;;;10.00;99.90;;;;;;5136258;27;20264;-80
2023/06/14 02:23:01;;;;;;;5.33;4.13;;;10.00;99.90;;;;;;5136400;27;20308;-80
2023/06/14 02:25:29;;;;;;;5.23;4.20;;;10.00;99.90;;;;;;5145280;27;20235;-80
2023/06/14 02:27:59;;;;;;;6.03;4.70;;;9.90;99.90;;;;;;5136170;27;20201;-78
2023/06/14 02:30:27;;;;;;;5.70;4.27;;;9.90;99.90;;;;;;5136077;27;20691;-80
2023/06/14 02:32:55;;;;;;;6.40;4.37;;;9.90;99.90;;;;;;5136124;27;20205;-80
2023/06/14 02:35:26;;;;;;;5.40;4.30;;;9.90;99.90;;;;;;5136453;27;20197;-79
2023/06/14 02:37:54;;;;;;;7.07;4.37;;;9.90;99.90;;;;;;5136251;27;20566;-79
2023/06/14 02:40:23;;;;;;;6.13;4.20;;;9.80;99.90;;;;;;5136216;27;20248;-80
2023/06/14 02:42:51;;;;;;;5.23;4.40;;;9.80;99.90;;;;;;5136012;27;20243;-79
2023/06/14 02:45:21;;;;;;;7.60;4.57;;;9.80;99.90;;;;;;5135697;27;20244;-80
2023/06/14 02:47:50;;;;;;;7.17;4.37;;;9.80;99.90;;;;;;5135763;27;20232;-80
2023/06/14 02:50:18;;;;;;;5.60;4.50;;;9.70;99.90;;;;;;5136054;27;20252;-78
2023/06/14 02:52:47;;;;;;;6.37;4.80;;;9.70;99.90;;;;;;5141676;27;20266;-80
2023/06/14 02:55:15;;;;;;;7.00;4.30;;;9.70;99.90;;;;;;5156804;27;20205;-80
2023/06/14 02:57:43;;;;;;;7.17;4.30;;;9.60;99.90;;;;;;5156240;27;20200;-79
2023/06/14 03:00:13;;;;;;;6.47;4.40;;;9.60;99.90;;;;;;5152310;27;20218;-80
2023/06/14 03:02:44;;;;;;;6.43;4.57;;;9.60;99.90;;;;;;5135284;27;20209;-80
2023/06/14 03:05:12;;;;;;;9.17;4.40;;;9.60;99.90;;;;;;5135761;27;20209;-79
2023/06/14 03:07:44;;;;;;;6.70;4.87;;;9.60;99.90;;;;;;5135503;27;20321;-78
2023/06/14 03:10:14;;;;;;;6.87;4.30;;;9.60;99.90;;;;;;5150364;27;20219;-80
2023/06/14 03:12:42;;;;;;;7.27;4.40;;;9.50;99.90;;;;;;5156008;27;20212;-80
2023/06/14 03:15:12;;;;;;;6.27;4.60;;;9.50;99.90;;;;;;5156260;27;20212;-80
2023/06/14 03:17:45;;;;;;;6.97;4.50;;;9.40;99.90;;;;;;5145695;27;20241;-80
2023/06/14 03:20:15;;;;;;;7.47;5.10;;;9.40;99.90;;;;;;5135167;27;20254;-79
2023/06/14 03:22:45;;;;;;;9.20;4.63;;;9.40;99.90;;;;;;5134178;27;20205;-79
2023/06/14 03:25:15;;;;;;;7.97;4.57;;;9.40;99.90;;;;;;5135103;27;20300;-79
2023/06/14 03:27:43;;;;;;;8.27;4.77;;;9.40;99.90;;;;;;5135032;27;20206;-78
2023/06/14 03:30:11;;;;;;;8.17;4.80;;;9.40;99.90;;;;;;5134588;27;20277;-78
2023/06/14 03:32:40;;;;;;;4.93;4.43;;;9.50;99.90;;;;;;5134093;27;20394;-78
2023/06/14 03:35:10;;;;;;;8.70;5.13;;;9.50;99.90;;;;;;5135424;27;20237;-78
2023/06/14 03:37:39;;;;;;;8.80;5.10;;;9.50;99.90;;;;;;5135438;27;20598;-80
2023/06/14 03:40:08;;;;;;;7.43;5.43;;;9.50;99.90;;;;;;5135119;27;20313;-80
2023/06/14 03:42:36;;;;;;;6.93;4.40;;;9.50;99.90;;;;;;5134319;27;20210;-80
2023/06/14 03:45:05;;;;;;;5.87;4.70;;;9.60;99.90;;;;;;5134906;27;20205;-79
2023/06/14 03:47:34;;;;;;;6.30;5.00;;;9.60;99.90;;;;;;5134836;27;20284;-79
2023/06/14 03:50:03;;;;;;;8.17;4.60;;;9.60;99.90;;;;;;5135017;27;20204;-79
2023/06/14 03:52:32;;;;;;;6.73;4.60;;;9.60;99.90;;;;;;5134682;27;20254;-80
2023/06/14 03:55:02;;;;;;;7.30;5.20;;;9.60;99.90;;;;;;5134495;27;20683;-79
2023/06/14 03:57:33;;;;;;;7.77;4.60;;;9.60;99.90;;;;;;5134973;27;20206;-79
2023/06/14 04:00:04;;;;;;;6.77;4.27;;;9.60;99.90;;;;;;5134574;27;20213;-78
2023/06/14 04:02:32;;;;;;;6.80;4.37;;;9.70;99.90;;;;;;5134426;27;20847;-79
2023/06/14 04:05:01;;;;;;;7.77;4.87;;;9.70;99.90;;;;;;5134454;27;20559;-79
2023/06/14 04:07:32;;;;;;;6.77;4.57;;;9.80;99.90;;;;;;5134515;27;20294;-80
2023/06/14 04:10:00;;;;;;;6.30;4.53;;;9.80;99.90;;;;;;5134601;27;20221;-80
2023/06/14 04:12:29;;;;;;;8.50;4.80;;;9.80;99.90;;;;;;5134093;27;20208;-80
2023/06/14 04:14:57;;;;;;;7.53;4.40;;;9.90;99.90;;;;;;5134298;27;20204;-79
2023/06/14 04:17:39;;;;;;;7.70;4.40;;;9.90;99.90;;;;;;5134165;27;20236;-80
2023/06/14 04:20:10;;;;;;;8.13;4.70;;;10.00;99.90;;;;;;5134314;27;20382;-80
2023/06/14 04:22:38;;;;;;;6.43;4.60;;;10.00;99.90;;;;;;5145448;27;20229;-80
2023/06/14 04:25:07;;;;;;;6.83;4.80;;;10.10;99.90;;;;;;5154903;27;20208;-81
2023/06/14 04:27:36;;;;;;;6.30;4.57;;;10.20;99.90;;;;;;5154308;27;20261;-79
2023/06/14 04:30:07;;;;;;;9.30;4.63;;;10.20;99.90;;;;;;5148273;27;20225;-79
2023/06/14 04:32:38;;;;;;;8.63;5.20;;;10.30;99.90;;;;;;5154650;27;20626;-81
2023/06/14 04:35:08;;;;;;;7.70;5.07;;;10.40;99.90;;;;;;5155594;27;20193;-79
2023/06/14 04:37:39;;;;;;;8.07;5.43;;;10.50;99.90;;;;;;5139208;27;20208;-80
2023/06/14 04:40:09;;;;;;;5.50;4.63;;;10.50;99.90;;;;;;5145217;27;20230;-78
2023/06/14 04:42:44;;;;;;;6.73;4.50;;;10.60;99.90;;;;;;5146277;27;20595;-78
2023/06/14 04:45:13;;;;;;;8.33;4.80;;;10.60;99.90;;;;;;5164089;27;20197;-79
2023/06/14 04:47:41;;;;;;;7.63;4.80;;;10.70;99.90;;;;;;5146112;27;20579;-80
2023/06/14 04:50:12;;;;;;;5.40;4.40;;;10.80;99.90;;;;;;5138522;27;20628;-81
2023/06/14 04:52:41;;;;;;;6.30;4.40;;;10.80;99.90;;;;;;5135497;27;20288;-80
2023/06/14 04:55:10;;;;;;;6.00;4.50;;;11.00;99.90;;;;;;5134119;27;20572;-80
2023/06/14 04:57:40;;;;;;;5.10;4.10;;;11.10;99.90;;;;;;5133784;27;20296;-78
2023/06/14 05:00:12;;;;;;;7.60;4.37;;;11.20;99.90;;;;;;5133618;27;20197;-80
2023/06/14 05:02:41;;;;;;;5.60;4.23;;;11.30;99.90;;;;;;5136317;27;20346;-80
2023/06/14 05:05:09;;;;;;;6.73;4.40;;;11.50;99.90;;;;;;5154403;27;20249;-82
2023/06/14 05:07:37;;;;;;;8.90;4.10;;;11.60;99.90;;;;;;5145679;27;20228;-81
2023/06/14 05:10:10;;;;;;;8.77;4.03;;;11.80;99.90;;;;;;5152027;27;20212;-82
2023/06/14 05:12:38;;;;;;;5.73;3.83;;;12.00;99.90;;;;;;5151904;27;20231;-78
2023/06/14 05:15:08;;;;;;;5.17;3.60;;;12.00;99.90;;;;;;5153281;27;20593;-80
2023/06/14 05:17:40;;;;;;;5.43;3.60;;;12.10;99.90;;;;;;5148951;27;20287;-80
2023/06/14 05:20:11;;;;;;;8.00;3.83;;;12.20;99.90;;;;;;5153350;27;20189;-82
2023/06/14 05:22:39;;;;;;;10.80;4.17;;;12.30;99.90;;;;;;5141944;27;20392;-80
2023/06/14 05:25:08;;;;;;;5.67;3.70;;;12.40;99.90;;;;;;5133250;27;20205;-81
2023/06/14 05:27:37;;;;;;;6.57;3.77;;;12.80;99.90;;;;;;5133000;27;20205;-81
2023/06/14 05:30:06;;;;;;;4.77;3.50;;;12.90;99.70;;;;;;5133160;27;20256;-79
2023/06/14 05:32:35;;;;;;;7.40;3.80;;;13.00;99.90;;;;;;5153456;27;20212;-80
2023/06/14 05:35:05;;;;;;;5.97;3.70;;;13.10;98.20;;;;;;5153684;27;20215;-81
2023/06/14 05:37:33;;;;;;;8.03;3.90;;;13.00;98.60;;;;;;5153932;27;20552;-80
2023/06/14 05:40:04;;;;;;;7.40;4.13;;;13.10;97.80;;;;;;5146748;27;20236;-82
2023/06/14 05:42:32;;;;;;;5.80;3.80;;;13.10;98.10;;;;;;5132785;27;20229;-81
2023/06/14 05:45:00;;;;;;;5.50;3.90;;;13.20;97.40;;;;;;5132859;27;20209;-81
2023/06/14 05:47:28;;;;;;;5.37;3.50;;;13.30;97.70;;;;;;5133047;28;20205;-78
2023/06/14 05:49:56;;;;;;;6.33;3.90;;;13.70;97.50;;;;;;5132003;27;20224;-80
2023/06/14 05:52:26;;;;;;;8.63;3.83;;;14.30;96.20;;;;;;5150960;27;20227;-80
2023/06/14 05:54:54;;;;;;;8.40;3.50;;;15.20;93.10;;;;;;5153173;27;20330;-80
2023/06/14 05:57:22;;;;;;;6.43;3.87;;;16.40;91.20;;;;;;5152993;27;20574;-78
2023/06/14 05:59:51;;;;;;;5.57;3.40;;;17.20;84.60;;;;;;5148457;27;20589;-78
2023/06/14 06:02:19;;;;;;;13.43;3.27;;;18.80;77.30;;;;;;5132657;27;20235;-80
2023/06/14 06:04:47;;;;;;;6.80;3.50;;;20.20;67.30;;;;;;5132566;27;20209;-81
2023/06/14 06:07:16;;;;;;;5.83;3.50;;;20.90;58.40;;;;;;5132601;28;20254;-80
2023/06/14 06:09:45;;;;;;;4.77;3.10;;;21.60;53.70;;;;;;5145316;27;20217;-80
2023/06/14 06:12:14;;;;;;;5.73;3.50;;;21.70;52.60;;;;;;5131865;28;20223;-79
2023/06/14 06:14:42;;;;;;;6.03;3.20;;;22.60;50.20;;;;;;5152135;27;20698;-81
2023/06/14 06:17:11;;;;;;;7.53;3.10;;;23.00;45.90;;;;;;5151967;27;20216;-77
2023/06/14 06:19:39;;;;;;;6.23;3.10;;;23.00;45.20;;;;;;5144118;27;20253;-82
2023/06/14 06:22:07;;;;;;;3.70;2.80;;;22.90;43.90;;;;;;5153269;27;20809;-77
2023/06/14 06:24:36;;;;;;;6.57;3.10;;;23.40;42.60;;;;;;5145277;27;20210;-79
2023/06/14 06:27:07;;;;;;;7.50;3.07;;;23.60;41.20;;;;;;5132295;27;20259;-82
2023/06/14 06:29:36;;;;;;;4.47;3.00;;;23.40;40.50;;;;;;5131605;27;20205;-80
2023/06/14 06:32:04;;;;;;;5.57;3.20;;;23.50;40.70;;;;;;5132067;27;20299;-77
2023/06/14 06:34:32;;;;;;;3.53;2.90;;;23.50;40.50;;;;;;5133474;28;20256;-82
2023/06/14 06:37:01;;;;;;;6.67;3.00;;;22.70;40.00;;;;;;5146587;27;20747;-82
2023/06/14 06:39:29;;;;;;;8.13;3.07;;;22.60;41.00;;;;;;5155384;27;20201;-81
2023/06/14 06:41:57;;;;;;;7.40;3.20;;;23.50;39.90;;;;;;5163886;27;20213;-80
2023/06/14 06:44:27;;;;;;;5.03;3.17;;;23.40;38.60;;;;;;5141632;27;20248;-80
2023/06/14 06:46:56;;;;;;;7.50;2.67;;;23.90;37.90;;;;;;5136439;28;20231;-82
2023/06/14 06:49:24;;;;;;;5.67;2.77;;;24.40;38.60;;;;;;5133838;28;20210;-79
2023/06/14 06:52:02;;;;;;;4.20;3.03;;;25.20;37.30;;;;;;5135640;27;20610;-81
2023/06/14 06:54:31;;;;;;;5.43;3.00;;;25.90;34.70;;;;;;5136281;27;20227;-78
2023/06/14 06:56:59;;;;;;;6.30;2.92;;;26.50;33.20;;;;;;5139787;27;20213;-79
2023/06/14 06:59:30;;;;;;;4.60;3.10;;;26.80;32.00;;;;;;5153769;27;20217;-77
2023/06/14 07:01:58;;;;;;;6.95;2.97;;;26.40;31.10;;;;;;5135618;27;20209;-81
2023/06/14 07:04:27;;;;;;;5.15;2.97;;;26.30;32.70;;;;;;5135919;27;20212;-78
2023/06/14 07:06:55;;;;;;;4.07;2.83;;;26.10;32.80;;;;;;5136388;27;20292;-81
2023/06/14 07:09:24;;;;;;;4.97;3.00;;;27.10;31.90;;;;;;5135893;27;20712;-82
2023/06/14 07:11:52;;;;;;;5.63;2.92;;;27.20;29.90;;;;;;5135529;27;20194;-82
2023/06/14 07:14:22;;;;;;;5.85;2.70;;;27.30;30.40;;;;;;5138948;27;20571;-82
2023/06/14 07:16:52;;;;;;;6.88;2.92;;;26.00;30.80;;;;;;5156566;27;20580;-83
2023/06/14 07:19:20;;;;;;;4.07;2.97;;;26.30;31.90;;;;;;5156579;27;20213;-82
2023/06/14 07:21:48;;;;;;;3.55;3.03;;;25.50;32.60;;;;;;5154937;27;20277;-84
2023/06/14 07:24:17;;;;;;;5.68;3.38;;;25.80;33.00;;;;;;5135691;27;20319;-81
2023/06/14 07:26:45;;;;;;;5.43;2.92;;;24.70;33.00;;;;;;5135626;27;20207;-82
2023/06/14 07:29:13;;;;;;;4.07;2.80;;;25.80;35.30;;;;;;5135433;27;20201;-81
2023/06/14 07:31:42;;;;;;;5.65;3.00;;;26.60;32.10;;;;;;5142259;27;20599;-80
2023/06/14 07:34:12;;;;;;;6.38;3.30;;;27.40;31.90;;;;;;5152354;27;20239;-81
2023/06/14 07:36:40;;;;;;;3.30;3.00;;;28.00;29.30;;;;;;5143016;27;20202;-82
2023/06/14 07:39:11;;;;;;;3.92;3.00;;;27.60;28.00;;;;;;5135094;27;20637;-83
2023/06/14 07:41:39;;;;;;;6.05;3.20;;;26.70;31.50;;;;;;5133357;27;20259;-82
2023/06/14 07:44:07;;;;;;;4.30;2.92;;;27.50;29.60;;;;;;5133480;27;20225;-83
2023/06/14 07:46:36;;;;;;;5.57;3.13;;;27.20;31.80;;;;;;5135965;27;20235;-81
2023/06/14 07:49:04;;;;;;;5.35;3.00;;;28.70;29.30;;;;;;5133337;27;20663;-82
2023/06/14 07:51:34;;;;;;;6.50;3.08;;;29.60;27.60;;;;;;5133536;27;20205;-80
2023/06/14 07:54:07;;;;;;;5.57;2.95;;;28.80;26.20;;;;;;5133204;27;20229;-81
2023/06/14 07:56:35;;;;;;;3.72;2.92;;;28.50;28.20;;;;;;5126990;27;20194;-83
2023/06/14 07:59:03;;;;;;;5.20;3.20;;;28.80;28.30;;;;;;5136633;27;20598;-82
2023/06/14 08:01:33;;;;;;;3.97;3.00;;;28.30;27.80;;;;;;5155901;27;20205;-83
2023/06/14 08:04:01;;;;;;;5.32;3.00;;;28.20;28.70;;;;;;5154624;27;20231;-83
2023/06/14 08:06:30;;;;;;;4.43;2.97;;;28.20;27.80;;;;;;5155657;27;20205;-81
2023/06/14 08:09:00;;;;;;;5.05;2.70;;;28.80;27.70;;;;;;5150241;27;20227;-81
2023/06/14 08:11:29;;;;;;;7.65;2.72;;;29.40;27.30;;;;;;5155425;27;20743;-80
2023/06/14 08:13:57;;;;;;;5.40;3.00;;;29.90;26.20;;;;;;5157121;27;20254;-80
2023/06/14 08:16:25;;;;;;;7.75;3.20;;;29.70;25.50;;;;;;5151994;27;20299;-82
2023/06/14 08:18:53;;;;;;;5.45;2.90;;;29.70;25.00;;;;;;5136002;27;20220;-83
2023/06/14 08:21:22;;;;;;;4.47;3.10;;;29.70;24.70;;;;;;5135563;27;20206;-80
2023/06/14 08:23:52;;;;;;;5.05;3.20;;;28.90;25.10;;;;;;5136711;27;20229;-80
2023/06/14 08:26:23;;;;;;;5.38;2.92;;;28.90;25.60;;;;;;5152676;27;20204;-81
2023/06/14 08:28:51;;;;;;;4.38;3.30;;;28.70;26.40;;;;;;5155597;27;20209;-84
2023/06/14 08:31:19;;;;;;;5.90;3.05;;;29.30;26.40;;;;;;5156068;27;20240;-82
2023/06/14 08:33:47;;;;;;;3.78;2.85;;;29.00;26.00;;;;;;5142830;27;20212;-79
2023/06/14 08:36:16;;;;;;;4.72;2.97;;;29.60;25.80;;;;;;5139830;27;20769;-81
2023/06/14 08:38:44;;;;;;;5.78;2.85;;;29.80;24.70;;;;;;5134749;27;20209;-82
2023/06/14 08:41:21;;;;;;;6.35;3.03;;;29.20;26.50;;;;;;5135579;27;20205;-81
2023/06/14 08:43:50;;;;;;;6.22;3.10;;;27.60;28.10;;;;;;5138120;27;20318;-80
2023/06/14 08:46:22;;;;;;;3.95;2.67;;;27.60;28.00;;;;;;5138251;27;20217;-81
2023/06/14 08:48:52;;;;;;;4.10;2.90;;;27.70;27.80;;;;;;5135703;27;20290;-79
2023/06/14 08:51:22;;;;;;;5.30;2.95;;;27.30;27.30;;;;;;5137055;27;20210;-82
2023/06/14 08:53:57;;;;;;;5.05;3.03;;;26.20;28.60;;;;;;5133898;27;20205;-84
2023/06/14 08:56:27;;;;;;;4.80;3.20;;;25.50;29.10;;;;;;5133830;27;20677;-81
2023/06/14 08:59:01;;;;;;;13.03;3.37;;;25.20;29.50;;;;;;5134452;27;20209;-81
2023/06/14 09:01:31;;;;;;;5.97;3.17;;;24.40;31.10;;;;;;5134022;27;20202;-83
2023/06/14 09:03:59;;;;;;;3.87;2.90;;;25.20;30.60;;;;;;5133814;27;20251;-81
2023/06/14 09:06:28;;;;;;;6.80;3.00;;;26.30;29.40;;;;;;5133611;27;20210;-81
2023/06/14 09:08:57;;;;;;;3.80;2.92;;;27.10;25.90;;;;;;5133837;27;20210;-81
2023/06/14 09:11:26;;;;;;;4.38;2.88;;;28.10;25.50;;;;;;5133686;27;20266;-81
2023/06/14 09:13:54;;;;;;;6.20;3.30;;;29.20;26.70;;;;;;5133561;27;20205;-82
2023/06/14 09:16:24;;;;;;;4.68;3.00;;;28.80;24.80;;;;;;5145195;27;20330;-83
2023/06/14 09:18:52;;;;;;;6.43;2.55;;;28.90;24.70;;;;;;5136235;27;20247;-80
2023/06/14 09:21:21;;;;;;;5.30;2.70;;;29.50;25.40;;;;;;5134017;27;20212;-83
2023/06/14 09:23:49;;;;;;;2.92;2.60;;;29.70;22.80;;;;;;5137521;27;20230;-80
2023/06/14 09:26:19;;;;;;;4.38;2.80;;;29.90;21.70;;;;;;5135982;27;20589;-82
2023/06/14 09:28:49;;;;;;;6.20;2.70;;;29.50;22.00;;;;;;5144256;27;20209;-81
2023/06/14 09:31:19;;;;;;;6.43;2.88;;;29.70;22.80;;;;;;5154578;27;20193;-82
2023/06/14 09:33:51;;;;;;;5.38;2.97;;;29.10;23.00;;;;;;5154578;27;20201;-81
2023/06/14 09:36:22;;;;;;;5.63;2.80;;;28.90;24.10;;;;;;5135579;27;20213;-82
2023/06/14 09:38:55;;;;;;;5.78;2.80;;;29.30;24.20;;;;;;5133724;27;20678;-82
2023/06/14 09:41:32;;;;;;;5.63;3.08;;;29.50;23.70;;;;;;5134372;27;20231;-82
2023/06/14 09:44:02;;;;;;;3.83;2.78;;;29.80;24.20;;;;;;5134627;27;20209;-80
2023/06/14 09:46:37;;;;;;;4.82;2.83;;;30.90;24.50;;;;;;5134696;27;20679;-81
2023/06/14 09:49:07;;;;;;;4.47;2.80;;;31.50;21.30;;;;;;5136367;27;20723;-83
2023/06/14 09:51:38;;;;;;;5.80;3.00;;;32.30;20.60;;;;;;5133538;27;20217;-80
2023/06/14 09:54:06;;;;;;;6.45;2.78;;;31.10;20.30;;;;;;5133793;28;20639;-80
2023/06/14 09:56:38;;;;;;;5.53;2.83;;;31.10;22.40;;;;;;5133108;28;20240;-80
2023/06/14 09:59:07;;;;;;;4.07;3.10;;;31.50;21.30;;;;;;5133087;28;20252;-81
2023/06/14 10:01:40;;;;;;;5.00;2.90;;;31.20;20.80;;;;;;5133292;27;20980;-79
2023/06/14 10:04:11;;;;;;;4.28;2.80;;;31.40;22.10;;;;;;5132894;28;20215;-81
2023/06/14 10:06:42;;;;;;;4.13;2.90;;;31.20;20.60;;;;;;5133218;28;20205;-81
2023/06/14 10:09:11;;;;;;;6.05;2.90;;;30.90;22.60;;;;;;5133494;28;20220;-80
2023/06/14 10:11:43;;;;;;;3.13;2.50;;;32.10;20.70;;;;;;5132750;27;20217;-79
2023/06/14 10:14:14;;;;;;;5.45;2.80;;;32.30;19.40;;;;;;5143749;27;20222;-80
2023/06/14 10:16:51;;;;;;;4.85;3.08;;;31.60;19.40;;;;;;5153548;27;20644;-80
2023/06/14 10:19:26;;;;;;;4.97;2.80;;;32.00;21.50;;;;;;5151963;27;20204;-79
2023/06/14 10:22:01;;;;;;;6.85;3.10;;;32.20;20.60;;;;;;5132673;28;20194;-80
2023/06/14 10:24:33;;;;;;;3.38;2.88;;;31.20;20.30;;;;;;5133245;28;20227;-81
2023/06/14 10:27:04;;;;;;;5.60;2.90;;;30.80;21.40;;;;;;5135694;27;20666;-83
2023/06/14 10:29:33;;;;;;;4.18;2.78;;;30.60;19.10;;;;;;5136814;27;20201;-82
2023/06/14 10:32:03;;;;;;;5.00;2.70;;;30.40;21.70;;;;;;5136370;27;20222;-81
2023/06/14 10:34:33;;;;;;;5.63;2.88;;;30.30;21.10;;;;;;5136730;27;20209;-82
2023/06/14 10:37:03;;;;;;;5.20;2.88;;;30.40;20.70;;;;;;5136598;27;20288;-81
2023/06/14 10:39:33;;;;;;;5.38;2.97;;;31.20;18.30;;;;;;5136736;27;20246;-82
2023/06/14 10:42:05;;;;;;;4.95;2.95;;;31.10;19.00;;;;;;5136142;27;20227;-77
2023/06/14 10:44:44;;;;;;;7.82;2.88;;;30.70;21.00;;;;;;5136609;27;20206;-81
2023/06/14 10:47:22;;;;;;;5.10;3.03;;;30.60;20.50;;;;;;5136525;27;20291;-84
2023/06/14 10:49:54;;;;;;;3.95;2.72;;;30.60;20.00;;;;;;5136296;27;20670;-85
2023/06/14 10:52:27;;;;;;;3.08;2.72;;;30.90;21.30;;;;;;5136578;27;20244;-81
2023/06/14 10:55:18;;;;;;;4.10;3.00;;;29.70;20.00;;;;;;5135976;27;20197;-82
2023/06/14 10:57:51;;;;;;;3.95;2.90;;;30.40;20.50;;;;;;5136751;27;20217;-81
2023/06/14 11:00:25;;;;;;;5.90;2.88;;;29.90;20.50;;;;;;5136510;27;20265;-83
2023/06/14 11:03:29;;;;;;;5.15;2.90;;;30.10;21.70;;;;;;5136296;27;20213;-82
2023/06/14 11:06:00;;;;;;;3.80;2.70;;;30.40;20.70;;;;;;5136413;27;20560;-81
2023/06/14 11:09:19;;;;;;;4.82;2.70;;;30.20;21.40;;;;;;5135964;27;20255;-79
2023/06/14 11:11:49;;;;;;;5.10;2.63;;;28.80;21.10;;;;;;5058448;28;20270;-80
2023/06/14 11:14:17;;;;;;;6.93;2.95;;;27.50;22.40;;;;;;5074659;28;20290;-80
2023/06/14 11:16:49;;;;;;;6.43;3.10;;;26.40;24.10;;;;;;5101457;27;20209;-79
2023/06/14 11:19:18;;;;;;;6.90;2.83;;;25.40;23.60;;;;;;5135640;27;20604;-81
2023/06/14 11:21:50;;;;;;;4.77;2.83;;;25.00;25.70;;;;;;5135884;27;20228;-80
2023/06/14 11:24:18;;;;;;;4.97;2.83;;;25.20;25.10;;;;;;5135705;27;20659;-81
2023/06/14 11:26:48;;;;;;;4.93;2.70;;;25.90;24.70;;;;;;5135547;27;20255;-82
2023/06/14 11:29:17;;;;;;;4.13;3.00;;;26.40;22.30;;;;;;5135736;27;20205;-84
2023/06/14 11:31:46;;;;;;;6.87;2.90;;;26.20;22.30;;;;;;5150962;27;20733;-84
2023/06/14 11:34:15;;;;;;;4.50;3.07;;;26.40;22.00;;;;;;5156489;27;20557;-81
2023/06/14 11:36:43;;;;;;;4.53;3.23;;;26.60;22.10;;;;;;5155297;27;20262;-79
2023/06/14 11:39:13;;;;;;;6.37;3.00;;;26.70;22.00;;;;;;5144748;27;20237;-80
2023/06/14 11:41:43;;;;;;;2.97;2.60;;;26.20;22.10;;;;;;5135319;27;20213;-82
2023/06/14 11:44:12;;;;;;;5.00;3.00;;;26.50;23.00;;;;;;5135114;27;20205;-82
2023/06/14 11:46:40;;;;;;;5.70;2.70;;;26.80;22.10;;;;;;5138180;27;20201;-82
2023/06/14 11:49:09;;;;;;;5.37;3.00;;;26.10;23.30;;;;;;5156050;27;20241;-79
2023/06/14 11:51:38;;;;;;;6.97;3.00;;;26.60;24.20;;;;;;5155970;27;20213;-81
2023/06/14 11:54:07;;;;;;;6.30;2.90;;;25.70;23.20;;;;;;5155443;27;20222;-80
2023/06/14 11:56:38;;;;;;;6.03;2.70;;;25.40;26.10;;;;;;5146855;27;20316;-79
2023/06/14 11:59:06;;;;;;;4.40;3.00;;;25.20;26.00;;;;;;5134702;27;20193;-78
2023/06/14 12:01:38;;;;;;;5.57;2.87;;;24.80;27.30;;;;;;5134852;27;20587;-79
2023/06/14 12:04:07;;;;;;;6.37;2.93;;;24.40;26.90;;;;;;5134541;27;20988;-81
2023/06/14 12:06:39;;;;;;;5.07;3.20;;;24.50;27.20;;;;;;5134355;27;20225;-80
2023/06/14 12:09:12;;;;;;;5.17;3.10;;;25.10;26.30;;;;;;5134647;27;20201;-83
2023/06/14 12:11:43;;;;;;;6.63;3.10;;;25.60;24.80;;;;;;5147569;27;20208;-80
2023/06/14 12:14:11;;;;;;;5.40;3.17;;;25.90;25.60;;;;;;5148703;27;20201;-79
2023/06/14 12:16:41;;;;;;;5.43;2.80;;;26.20;25.10;;;;;;5134269;27;20338;-80
2023/06/14 12:19:12;;;;;;;5.13;3.00;;;26.10;25.30;;;;;;5134390;27;20312;-80
2023/06/14 12:21:41;;;;;;;7.03;2.80;;;24.90;23.30;;;;;;5134137;27;20654;-79
2023/06/14 12:24:11;;;;;;;6.47;3.00;;;24.80;25.20;;;;;;5134413;27;20208;-81
2023/06/14 12:26:43;;;;;;;5.73;3.07;;;24.30;24.20;;;;;;5134542;27;20225;-81
2023/06/14 12:29:12;;;;;;;6.30;3.10;;;23.70;26.50;;;;;;5134517;27;20323;-78
2023/06/14 12:31:41;;;;;;;7.43;3.27;;;23.40;25.50;;;;;;5134021;27;20233;-79
2023/06/14 12:34:10;;;;;;;3.60;2.90;;;23.40;28.70;;;;;;5133804;27;20209;-78
2023/06/14 12:36:43;;;;;;;5.23;2.87;;;23.30;28.70;;;;;;5134251;27;20213;-79
2023/06/14 12:39:12;;;;;;;4.60;3.00;;;23.80;28.30;;;;;;5134079;27;20205;-82
2023/06/14 12:41:41;;;;;;;5.03;3.23;;;24.40;26.60;;;;;;5134521;27;20209;-78
2023/06/14 12:44:11;;;;;;;3.73;2.97;;;24.30;27.00;;;;;;5133957;27;20209;-80
2023/06/14 12:46:41;;;;;;;4.90;2.83;;;24.20;27.20;;;;;;5134273;27;20586;-80
2023/06/14 12:49:10;;;;;;;4.30;3.30;;;24.00;27.50;;;;;;5133949;27;20261;-79
2023/06/14 12:51:39;;;;;;;4.00;2.90;;;23.90;26.10;;;;;;5133766;27;20555;-78
2023/06/14 12:54:08;;;;;;;3.43;2.90;;;23.80;27.40;;;;;;5133378;27;20663;-80
2023/06/14 12:56:36;;;;;;;4.93;3.00;;;23.60;26.10;;;;;;5133656;27;20691;-80
2023/06/14 12:59:05;;;;;;;6.53;3.03;;;23.30;26.70;;;;;;5150537;27;20209;-78
2023/06/14 13:01:36;;;;;;;5.43;2.90;;;23.40;27.60;;;;;;5154346;27;20296;-81